sensor_id;sensor_type;location;lat;lon;timestamp;pressure;altitude;pressure_sealevel;temperature;humidity
38912;BME280;28444;48.056;14.408;2023-02-19T00:01:29;97926.06;;;9.99;88.21
38912;BME280;28444;48.056;14.408;2023-02-19T00:03:59;97921.50;;;9.94;88.16
38912;BME280;28444;48.056;14.408;2023-02-19T00:06:27;97924.03;;;9.99;87.75
38912;BME280;28444;48.056;14.408;2023-02-19T00:08:54;97920.59;;;9.99;87.91
38912;BME280;28444;48.056;14.408;2023-02-19T00:11:24;97922.19;;;10.02;87.71
38912;BME280;28444;48.056;14.408;2023-02-19T00:13:53;97914.38;;;9.98;87.62
38912;BME280;28444;48.056;14.408;2023-02-19T00:16:25;97925.50;;;10.00;87.27
38912;BME280;28444;48.056;14.408;2023-02-19T00:18:52;97919.13;;;9.98;87.65
38912;BME280;28444;48.056;14.408;2023-02-19T00:21:20;97926.59;;;9.97;87.48
38912;BME280;28444;48.056;14.408;2023-02-19T00:23:51;97922.94;;;10.02;87.34
38912;BME280;28444;48.056;14.408;2023-02-19T00:26:18;97922.56;;;9.98;87.66
38912;BME280;28444;48.056;14.408;2023-02-19T00:28:47;97909.66;;;9.99;87.87
38912;BME280;28444;48.056;14.408;2023-02-19T00:31:29;97926.94;;;10.01;87.84
38912;BME280;28444;48.056;14.408;2023-02-19T00:34:00;97917.47;;;9.95;88.61
38912;BME280;28444;48.056;14.408;2023-02-19T00:36:28;97915.28;;;10.01;88.55
38912;BME280;28444;48.056;14.408;2023-02-19T00:38:55;97916.38;;;9.98;89.26
38912;BME280;28444;48.056;14.408;2023-02-19T00:41:23;97910.75;;;9.96;89.54
38912;BME280;28444;48.056;14.408;2023-02-19T00:44:10;97910.41;;;9.92;89.71
38912;BME280;28444;48.056;14.408;2023-02-19T00:46:43;97914.22;;;9.88;90.01
38912;BME280;28444;48.056;14.408;2023-02-19T00:49:15;97909.66;;;9.83;89.82
38912;BME280;28444;48.056;14.408;2023-02-19T00:51:42;97906.03;;;9.88;90.41
38912;BME280;28444;48.056;14.408;2023-02-19T00:54:09;97900.22;;;9.84;90.58
38912;BME280;28444;48.056;14.408;2023-02-19T00:56:36;97905.31;;;9.80;90.54
38912;BME280;28444;48.056;14.408;2023-02-19T00:59:02;97899.66;;;9.78;90.74
38912;BME280;28444;48.056;14.408;2023-02-19T01:01:30;97901.50;;;9.76;91.10
38912;BME280;28444;48.056;14.408;2023-02-19T01:03:57;97900.75;;;9.75;91.55
38912;BME280;28444;48.056;14.408;2023-02-19T01:06:23;97892.22;;;9.63;92.46
38912;BME280;28444;48.056;14.408;2023-02-19T01:08:50;97894.59;;;9.67;93.68
38912;BME280;28444;48.056;14.408;2023-02-19T01:11:18;97884.41;;;9.60;95.65
38912;BME280;28444;48.056;14.408;2023-02-19T01:13:46;97880.38;;;9.61;97.72
38912;BME280;28444;48.056;14.408;2023-02-19T01:16:18;97884.22;;;9.58;98.68
38912;BME280;28444;48.056;14.408;2023-02-19T01:18:46;97888.59;;;9.53;98.80
38912;BME280;28444;48.056;14.408;2023-02-19T01:21:22;97878.59;;;9.48;99.26
38912;BME280;28444;48.056;14.408;2023-02-19T01:23:50;97893.31;;;9.53;99.41
38912;BME280;28444;48.056;14.408;2023-02-19T01:26:19;97869.84;;;9.34;100.00
38912;BME280;28444;48.056;14.408;2023-02-19T01:28:47;97877.13;;;9.32;100.00
38912;BME280;28444;48.056;14.408;2023-02-19T01:31:16;97872.03;;;9.28;100.00
38912;BME280;28444;48.056;14.408;2023-02-19T01:33:48;97872.03;;;9.28;100.00
38912;BME280;28444;48.056;14.408;2023-02-19T01:36:15;97870.22;;;9.31;100.00
38912;BME280;28444;48.056;14.408;2023-02-19T01:38:42;97869.31;;;9.28;100.00
38912;BME280;28444;48.056;14.408;2023-02-19T01:41:12;97860.59;;;9.37;99.88
38912;BME280;28444;48.056;14.408;2023-02-19T01:47:01;97860.38;;;9.35;99.74
38912;BME280;28444;48.056;14.408;2023-02-19T01:49:31;97855.13;;;9.30;99.59
38912;BME280;28444;48.056;14.408;2023-02-19T01:52:03;97850.56;;;9.25;100.00
38912;BME280;28444;48.056;14.408;2023-02-19T01:54:34;97849.28;;;9.26;100.00
38912;BME280;28444;48.056;14.408;2023-02-19T01:57:03;97839.09;;;9.19;100.00
38912;BME280;28444;48.056;14.408;2023-02-19T01:59:32;97836.38;;;9.26;99.74
38912;BME280;28444;48.056;14.408;2023-02-19T02:01:59;97827.66;;;9.12;100.00
38912;BME280;28444;48.056;14.408;2023-02-19T02:04:29;97841.28;;;9.20;99.98
38912;BME280;28444;48.056;14.408;2023-02-19T02:06:57;97828.72;;;9.25;100.00
38912;BME280;28444;48.056;14.408;2023-02-19T02:09:28;97831.31;;;9.15;100.00
38912;BME280;28444;48.056;14.408;2023-02-19T02:12:15;97832.19;;;9.18;100.00
38912;BME280;28444;48.056;14.408;2023-02-19T02:14:45;97822.19;;;9.20;99.96
38912;BME280;28444;48.056;14.408;2023-02-19T02:18:01;97823.84;;;9.15;100.00
38912;BME280;28444;48.056;14.408;2023-02-19T02:20:46;97824.56;;;9.16;100.00
38912;BME280;28444;48.056;14.408;2023-02-19T02:27:26;97811.28;;;9.05;100.00
38912;BME280;28444;48.056;14.408;2023-02-19T02:29:46;97811.28;;;9.05;100.00
38912;BME280;28444;48.056;14.408;2023-02-19T02:32:39;97811.09;;;8.95;100.00
38912;BME280;28444;48.056;14.408;2023-02-19T02:35:10;97802.19;;;8.95;100.00
38912;BME280;28444;48.056;14.408;2023-02-19T02:37:40;97799.81;;;8.99;100.00
38912;BME280;28444;48.056;14.408;2023-02-19T02:40:09;97799.81;;;8.83;100.00
38912;BME280;28444;48.056;14.408;2023-02-19T02:42:38;97806.72;;;8.77;100.00
38912;BME280;28444;48.056;14.408;2023-02-19T02:45:23;97804.91;;;8.79;100.00
38912;BME280;28444;48.056;14.408;2023-02-19T02:48:23;97803.06;;;8.66;100.00
38912;BME280;28444;48.056;14.408;2023-02-19T02:50:55;97801.06;;;8.67;100.00
38912;BME280;28444;48.056;14.408;2023-02-19T02:53:25;97794.53;;;8.62;100.00
38912;BME280;28444;48.056;14.408;2023-02-19T02:56:14;97804.16;;;8.63;100.00
38912;BME280;28444;48.056;14.408;2023-02-19T02:58:42;97802.53;;;8.68;100.00
38912;BME280;28444;48.056;14.408;2023-02-19T03:01:16;97792.50;;;8.63;100.00
38912;BME280;28444;48.056;14.408;2023-02-19T03:04:07;97787.25;;;8.65;100.00
38912;BME280;28444;48.056;14.408;2023-02-19T03:06:36;97788.91;;;8.68;100.00
38912;BME280;28444;48.056;14.408;2023-02-19T03:09:11;97797.03;;;8.60;100.00
38912;BME280;28444;48.056;14.408;2023-02-19T03:11:42;97785.63;;;8.62;100.00
38912;BME280;28444;48.056;14.408;2023-02-19T03:14:44;97786.72;;;8.66;100.00
38912;BME280;28444;48.056;14.408;2023-02-19T03:17:36;97776.53;;;8.75;100.00
38912;BME280;28444;48.056;14.408;2023-02-19T03:20:26;97781.25;;;8.74;100.00
38912;BME280;28444;48.056;14.408;2023-02-19T03:22:54;97768.00;;;8.78;100.00
38912;BME280;28444;48.056;14.408;2023-02-19T03:25:27;97764.53;;;8.70;100.00
38912;BME280;28444;48.056;14.408;2023-02-19T03:28:21;97770.72;;;8.71;100.00
38912;BME280;28444;48.056;14.408;2023-02-19T03:31:11;97768.75;;;8.79;100.00
38912;BME280;28444;48.056;14.408;2023-02-19T03:33:40;97759.81;;;8.71;100.00
38912;BME280;28444;48.056;14.408;2023-02-19T03:36:10;97769.28;;;8.77;100.00
38912;BME280;28444;48.056;14.408;2023-02-19T03:38:49;97766.38;;;8.75;100.00
38912;BME280;28444;48.056;14.408;2023-02-19T03:41:29;97766.72;;;8.72;100.00
38912;BME280;28444;48.056;14.408;2023-02-19T03:47:35;97772.00;;;8.62;100.00
38912;BME280;28444;48.056;14.408;2023-02-19T03:50:34;97765.97;;;8.63;100.00
38912;BME280;28444;48.056;14.408;2023-02-19T03:53:30;97755.44;;;8.52;100.00
38912;BME280;28444;48.056;14.408;2023-02-19T03:56:28;97757.44;;;8.59;100.00
38912;BME280;28444;48.056;14.408;2023-02-19T03:59:10;97747.25;;;8.60;100.00
38912;BME280;28444;48.056;14.408;2023-02-19T04:02:05;97748.19;;;8.62;100.00
38912;BME280;28444;48.056;14.408;2023-02-19T04:04:49;97758.88;;;8.60;100.00
38912;BME280;28444;48.056;14.408;2023-02-19T04:07:17;97750.53;;;8.58;100.00
38912;BME280;28444;48.056;14.408;2023-02-19T04:09:46;97765.81;;;8.54;100.00
38912;BME280;28444;48.056;14.408;2023-02-19T04:12:16;97758.72;;;8.58;100.00
38912;BME280;28444;48.056;14.408;2023-02-19T04:15:11;97758.16;;;8.60;100.00
38912;BME280;28444;48.056;14.408;2023-02-19T04:18:01;97756.72;;;8.59;100.00
38912;BME280;28444;48.056;14.408;2023-02-19T04:20:33;97746.00;;;8.61;100.00
38912;BME280;28444;48.056;14.408;2023-02-19T04:23:03;97745.97;;;8.53;100.00
38912;BME280;28444;48.056;14.408;2023-02-19T04:25:31;97742.88;;;8.57;100.00
38912;BME280;28444;48.056;14.408;2023-02-19T04:27:58;97738.00;;;8.63;100.00
38912;BME280;28444;48.056;14.408;2023-02-19T04:30:25;97736.91;;;8.58;100.00
38912;BME280;28444;48.056;14.408;2023-02-19T04:32:52;97746.53;;;8.67;100.00
38912;BME280;28444;48.056;14.408;2023-02-19T04:35:19;97746.53;;;8.67;100.00
38912;BME280;28444;48.056;14.408;2023-02-19T04:37:45;97738.56;;;8.69;100.00
38912;BME280;28444;48.056;14.408;2023-02-19T04:40:12;97732.53;;;8.63;100.00
38912;BME280;28444;48.056;14.408;2023-02-19T04:42:38;97732.19;;;8.66;100.00
38912;BME280;28444;48.056;14.408;2023-02-19T04:45:06;97732.19;;;8.66;100.00
38912;BME280;28444;48.056;14.408;2023-02-19T04:47:32;97735.28;;;8.71;100.00
38912;BME280;28444;48.056;14.408;2023-02-19T04:49:59;97731.28;;;8.72;100.00
38912;BME280;28444;48.056;14.408;2023-02-19T04:52:25;97727.09;;;8.63;100.00
38912;BME280;28444;48.056;14.408;2023-02-19T04:54:52;97726.72;;;8.59;100.00
38912;BME280;28444;48.056;14.408;2023-02-19T04:57:19;97719.09;;;8.65;100.00
38912;BME280;28444;48.056;14.408;2023-02-19T04:59:45;97706.38;;;8.60;100.00
38912;BME280;28444;48.056;14.408;2023-02-19T05:02:12;97718.19;;;8.62;100.00
38912;BME280;28444;48.056;14.408;2023-02-19T05:04:39;97726.94;;;8.61;100.00
38912;BME280;28444;48.056;14.408;2023-02-19T05:07:06;97724.72;;;8.67;100.00
38912;BME280;28444;48.056;14.408;2023-02-19T05:09:33;97724.91;;;8.69;100.00
38912;BME280;28444;48.056;14.408;2023-02-19T05:12:00;97714.75;;;8.70;100.00
38912;BME280;28444;48.056;14.408;2023-02-19T05:14:26;97702.75;;;8.73;100.00
38912;BME280;28444;48.056;14.408;2023-02-19T05:16:53;97693.28;;;8.66;100.00
38912;BME280;28444;48.056;14.408;2023-02-19T05:19:19;97693.09;;;8.56;100.00
38912;BME280;28444;48.056;14.408;2023-02-19T05:21:46;97697.31;;;8.50;100.00
38912;BME280;28444;48.056;14.408;2023-02-19T05:24:13;97698.91;;;8.45;100.00
38912;BME280;28444;48.056;14.408;2023-02-19T05:26:39;97696.19;;;8.37;100.00
38912;BME280;28444;48.056;14.408;2023-02-19T05:29:06;97698.03;;;8.42;100.00
38912;BME280;28444;48.056;14.408;2023-02-19T05:31:33;97686.56;;;8.44;100.00
38912;BME280;28444;48.056;14.408;2023-02-19T05:33:59;97692.00;;;8.44;100.00
38912;BME280;28444;48.056;14.408;2023-02-19T05:36:26;97700.19;;;8.52;100.00
38912;BME280;28444;48.056;14.408;2023-02-19T05:38:54;97683.13;;;8.59;100.00
38912;BME280;28444;48.056;14.408;2023-02-19T05:41:23;97676.94;;;8.58;100.00
38912;BME280;28444;48.056;14.408;2023-02-19T05:43:51;97687.28;;;8.60;100.00
38912;BME280;28444;48.056;14.408;2023-02-19T05:46:19;97696.75;;;8.59;100.00
38912;BME280;28444;48.056;14.408;2023-02-19T05:48:47;97686.19;;;8.63;100.00
38912;BME280;28444;48.056;14.408;2023-02-19T05:51:17;97690.22;;;8.62;100.00
38912;BME280;28444;48.056;14.408;2023-02-19T05:53:44;97689.28;;;8.67;100.00
38912;BME280;28444;48.056;14.408;2023-02-19T05:56:29;97699.09;;;8.62;100.00
38912;BME280;28444;48.056;14.408;2023-02-19T05:58:56;97687.13;;;8.65;100.00
38912;BME280;28444;48.056;14.408;2023-02-19T06:01:25;97698.75;;;8.58;100.00
38912;BME280;28444;48.056;14.408;2023-02-19T06:03:52;97722.91;;;8.62;100.00
38912;BME280;28444;48.056;14.408;2023-02-19T06:06:23;97721.28;;;8.66;99.74
38912;BME280;28444;48.056;14.408;2023-02-19T06:08:50;97729.66;;;8.61;98.71
38912;BME280;28444;48.056;14.408;2023-02-19T06:11:17;97732.19;;;8.59;99.53
38912;BME280;28444;48.056;14.408;2023-02-19T06:13:44;97738.19;;;8.57;100.00
38912;BME280;28444;48.056;14.408;2023-02-19T06:16:11;97747.44;;;8.54;100.00
38912;BME280;28444;48.056;14.408;2023-02-19T06:18:38;97750.16;;;8.47;100.00
38912;BME280;28444;48.056;14.408;2023-02-19T06:21:09;97753.97;;;8.43;100.00
38912;BME280;28444;48.056;14.408;2023-02-19T06:23:36;97751.00;;;8.34;100.00
38912;BME280;28444;48.056;14.408;2023-02-19T06:26:12;97747.22;;;8.37;100.00
38912;BME280;28444;48.056;14.408;2023-02-19T06:28:40;97757.75;;;8.33;100.00
38912;BME280;28444;48.056;14.408;2023-02-19T06:31:08;97753.53;;;8.24;100.00
38912;BME280;28444;48.056;14.408;2023-02-19T06:33:39;97767.69;;;8.23;100.00
38912;BME280;28444;48.056;14.408;2023-02-19T06:36:09;97772.78;;;8.26;100.00
38912;BME280;28444;48.056;14.408;2023-02-19T06:38:36;97773.69;;;8.21;100.00
38912;BME280;28444;48.056;14.408;2023-02-19T06:41:05;97766.41;;;8.24;100.00
38912;BME280;28444;48.056;14.408;2023-02-19T06:43:32;97764.47;;;8.32;100.00
38912;BME280;28444;48.056;14.408;2023-02-19T06:46:00;97777.16;;;8.29;100.00
38912;BME280;28444;48.056;14.408;2023-02-19T06:48:28;97782.41;;;8.27;100.00
38912;BME280;28444;48.056;14.408;2023-02-19T06:50:55;97758.22;;;8.16;100.00
38912;BME280;28444;48.056;14.408;2023-02-19T06:53:22;97772.19;;;8.05;100.00
38912;BME280;28444;48.056;14.408;2023-02-19T06:56:28;97779.97;;;8.01;100.00
38912;BME280;28444;48.056;14.408;2023-02-19T06:58:54;97782.50;;;7.99;100.00
38912;BME280;28444;48.056;14.408;2023-02-19T07:01:22;97793.19;;;7.89;100.00
38912;BME280;28444;48.056;14.408;2023-02-19T07:03:49;97796.81;;;7.91;100.00
38912;BME280;28444;48.056;14.408;2023-02-19T07:06:18;97796.28;;;7.93;100.00
38912;BME280;28444;48.056;14.408;2023-02-19T07:08:45;97792.66;;;7.98;100.00
38912;BME280;28444;48.056;14.408;2023-02-19T07:11:12;97799.03;;;8.01;100.00
38912;BME280;28444;48.056;14.408;2023-02-19T07:13:39;97801.97;;;8.03;100.00
38912;BME280;28444;48.056;14.408;2023-02-19T07:16:07;97794.00;;;8.12;100.00
38912;BME280;28444;48.056;14.408;2023-02-19T07:18:34;97792.19;;;8.15;100.00
38912;BME280;28444;48.056;14.408;2023-02-19T07:21:12;97794.38;;;8.24;100.00
38912;BME280;28444;48.056;14.408;2023-02-19T07:23:40;97800.41;;;8.23;100.00
38912;BME280;28444;48.056;14.408;2023-02-19T07:26:08;97793.31;;;8.27;100.00
38912;BME280;28444;48.056;14.408;2023-02-19T07:28:35;97795.50;;;8.29;100.00
38912;BME280;28444;48.056;14.408;2023-02-19T07:31:03;97801.34;;;8.33;100.00
38912;BME280;28444;48.056;14.408;2023-02-19T07:33:30;97806.22;;;8.34;100.00
38912;BME280;28444;48.056;14.408;2023-02-19T07:35:57;97800.75;;;8.27;100.00
38912;BME280;28444;48.056;14.408;2023-02-19T07:38:24;97795.88;;;8.33;100.00
38912;BME280;28444;48.056;14.408;2023-02-19T07:40:58;97798.47;;;8.38;100.00
38912;BME280;28444;48.056;14.408;2023-02-19T07:43:28;97801.75;;;8.44;100.00
38912;BME280;28444;48.056;14.408;2023-02-19T07:45:55;97801.41;;;8.48;100.00
38912;BME280;28444;48.056;14.408;2023-02-19T07:48:22;97805.59;;;8.57;100.00
38912;BME280;28444;48.056;14.408;2023-02-19T07:50:58;97783.41;;;8.60;100.00
38912;BME280;28444;48.056;14.408;2023-02-19T07:53:26;97802.34;;;8.66;100.00
38912;BME280;28444;48.056;14.408;2023-02-19T07:55:57;97797.25;;;8.70;99.66
38912;BME280;28444;48.056;14.408;2023-02-19T07:58:24;97794.72;;;8.72;100.00
38912;BME280;28444;48.056;14.408;2023-02-19T08:00:51;97808.16;;;8.78;99.14
38912;BME280;28444;48.056;14.408;2023-02-19T08:03:17;97811.09;;;8.80;98.31
38912;BME280;28444;48.056;14.408;2023-02-19T08:05:44;97808.72;;;8.84;98.62
38912;BME280;28444;48.056;14.408;2023-02-19T08:08:13;97803.84;;;8.90;98.47
38912;BME280;28444;48.056;14.408;2023-02-19T08:10:40;97807.81;;;8.89;97.73
38912;BME280;28444;48.056;14.408;2023-02-19T08:13:27;97809.28;;;8.98;99.32
38912;BME280;28444;48.056;14.408;2023-02-19T08:16:08;97814.91;;;9.07;96.84
38912;BME280;28444;48.056;14.408;2023-02-19T08:18:47;97825.28;;;9.01;97.63
38912;BME280;28444;48.056;14.408;2023-02-19T08:21:14;97830.56;;;9.07;98.09
38912;BME280;28444;48.056;14.408;2023-02-19T08:23:43;97822.38;;;9.14;97.26
38912;BME280;28444;48.056;14.408;2023-02-19T08:26:11;97821.63;;;9.22;95.13
38912;BME280;28444;48.056;14.408;2023-02-19T08:28:38;97825.09;;;9.22;96.27
38912;BME280;28444;48.056;14.408;2023-02-19T08:31:07;97825.66;;;9.21;96.11
38912;BME280;28444;48.056;14.408;2023-02-19T08:33:36;97840.94;;;9.16;96.39
38912;BME280;28444;48.056;14.408;2023-02-19T08:36:04;97828.56;;;9.30;95.06
38912;BME280;28444;48.056;14.408;2023-02-19T08:38:33;97833.28;;;9.30;94.82
38912;BME280;28444;48.056;14.408;2023-02-19T08:41:05;97839.13;;;9.34;94.72
38912;BME280;28444;48.056;14.408;2023-02-19T08:43:33;97848.03;;;9.42;93.92
38912;BME280;28444;48.056;14.408;2023-02-19T08:46:00;97833.28;;;9.37;94.68
38912;BME280;28444;48.056;14.408;2023-02-19T08:48:27;97836.56;;;9.36;95.13
38912;BME280;28444;48.056;14.408;2023-02-19T08:50:55;97841.28;;;9.35;94.23
38912;BME280;28444;48.056;14.408;2023-02-19T08:53:23;97846.38;;;9.47;94.41
38912;BME280;28444;48.056;14.408;2023-02-19T08:55:50;97847.84;;;9.48;93.11
38912;BME280;28444;48.056;14.408;2023-02-19T08:58:17;97838.00;;;9.60;92.03
38912;BME280;28444;48.056;14.408;2023-02-19T09:00:44;97844.91;;;9.61;91.20
38912;BME280;28444;48.056;14.408;2023-02-19T09:03:10;97827.78;;;9.60;90.84
38912;BME280;28444;48.056;14.408;2023-02-19T09:05:37;97825.25;;;9.55;91.60
38912;BME280;28444;48.056;14.408;2023-02-19T09:08:04;97839.81;;;9.57;90.92
38912;BME280;28444;48.056;14.408;2023-02-19T09:10:31;97839.81;;;9.57;90.32
38912;BME280;28444;48.056;14.408;2023-02-19T09:12:57;97839.63;;;9.63;91.11
38912;BME280;28444;48.056;14.408;2023-02-19T09:15:24;97839.81;;;9.57;91.79
38912;BME280;28444;48.056;14.408;2023-02-19T09:17:51;97849.44;;;9.51;92.38
38912;BME280;28444;48.056;14.408;2023-02-19T09:20:18;97838.91;;;9.32;92.07
38912;BME280;28444;48.056;14.408;2023-02-19T09:22:45;97842.75;;;9.44;92.11
38912;BME280;28444;48.056;14.408;2023-02-19T09:25:12;97866.22;;;9.32;92.19
38912;BME280;28444;48.056;14.408;2023-02-19T09:27:38;97879.66;;;9.07;96.19
38912;BME280;28444;48.056;14.408;2023-02-19T09:30:05;97904.56;;;8.96;100.00
38912;BME280;28444;48.056;14.408;2023-02-19T09:32:32;97886.09;;;8.50;98.04
38912;BME280;28444;48.056;14.408;2023-02-19T09:34:59;97902.19;;;7.76;100.00
38912;BME280;28444;48.056;14.408;2023-02-19T09:37:26;97920.31;;;7.23;100.00
38912;BME280;28444;48.056;14.408;2023-02-19T09:39:53;97917.31;;;7.14;100.00
38912;BME280;28444;48.056;14.408;2023-02-19T09:42:26;97940.78;;;7.24;100.00
38912;BME280;28444;48.056;14.408;2023-02-19T09:44:57;97926.59;;;7.39;100.00
38912;BME280;28444;48.056;14.408;2023-02-19T09:47:27;97924.66;;;7.47;100.00
38912;BME280;28444;48.056;14.408;2023-02-19T09:49:58;97931.38;;;7.46;100.00
38912;BME280;28444;48.056;14.408;2023-02-19T09:52:46;97928.38;;;7.37;100.00
38912;BME280;28444;48.056;14.408;2023-02-19T09:55:30;97933.75;;;7.29;100.00
38912;BME280;28444;48.056;14.408;2023-02-19T09:57:58;97931.84;;;7.37;100.00
38912;BME280;28444;48.056;14.408;2023-02-19T10:00:28;97952.34;;;7.38;100.00
38912;BME280;28444;48.056;14.408;2023-02-19T10:03:10;97943.72;;;7.47;100.00
38912;BME280;28444;48.056;14.408;2023-02-19T10:05:38;97952.03;;;7.63;100.00
38912;BME280;28444;48.056;14.408;2023-02-19T10:08:11;97953.41;;;7.77;100.00
38912;BME280;28444;48.056;14.408;2023-02-19T10:10:40;97954.03;;;7.91;99.57
38912;BME280;28444;48.056;14.408;2023-02-19T10:13:21;97949.44;;;8.07;96.84
38912;BME280;28444;48.056;14.408;2023-02-19T10:15:54;97951.25;;;8.12;95.86
38912;BME280;28444;48.056;14.408;2023-02-19T10:18:27;97936.97;;;8.19;94.42
38912;BME280;28444;48.056;14.408;2023-02-19T10:20:55;97950.78;;;8.21;93.92
38912;BME280;28444;48.056;14.408;2023-02-19T10:23:23;97943.16;;;8.27;93.79
38912;BME280;28444;48.056;14.408;2023-02-19T10:25:56;97945.72;;;8.25;91.92
38912;BME280;28444;48.056;14.408;2023-02-19T10:28:32;97951.66;;;8.16;91.47
38912;BME280;28444;48.056;14.408;2023-02-19T10:31:02;97969.47;;;8.17;92.00
38912;BME280;28444;48.056;14.408;2023-02-19T10:33:29;97957.53;;;8.28;90.39
38912;BME280;28444;48.056;14.408;2023-02-19T10:36:05;97955.06;;;8.37;90.69
38912;BME280;28444;48.056;14.408;2023-02-19T10:41:15;97959.19;;;8.67;89.35
38912;BME280;28444;48.056;14.408;2023-02-19T10:44:06;97957.94;;;8.68;87.99
38912;BME280;28444;48.056;14.408;2023-02-19T10:46:39;97968.69;;;8.81;87.90
38912;BME280;28444;48.056;14.408;2023-02-19T10:49:37;97957.31;;;8.98;88.09
38912;BME280;28444;48.056;14.408;2023-02-19T10:52:21;97952.22;;;9.10;88.04
38912;BME280;28444;48.056;14.408;2023-02-19T10:54:57;97957.69;;;9.18;86.95
38912;BME280;28444;48.056;14.408;2023-02-19T10:57:40;97963.00;;;9.38;87.62
38912;BME280;28444;48.056;14.408;2023-02-19T11:00:24;97960.84;;;9.60;87.51
38912;BME280;28444;48.056;14.408;2023-02-19T11:03:21;97955.75;;;9.79;85.81
38912;BME280;28444;48.056;14.408;2023-02-19T11:06:00;97953.00;;;9.79;85.42
38912;BME280;28444;48.056;14.408;2023-02-19T11:08:29;97956.47;;;10.03;86.21
38912;BME280;28444;48.056;14.408;2023-02-19T11:10:57;97952.78;;;10.16;84.60
38912;BME280;28444;48.056;14.408;2023-02-19T11:13:30;97952.97;;;10.33;83.58
38912;BME280;28444;48.056;14.408;2023-02-19T11:15:58;97952.78;;;10.39;81.69
38912;BME280;28444;48.056;14.408;2023-02-19T11:18:28;97946.53;;;10.53;80.68
38912;BME280;28444;48.056;14.408;2023-02-19T11:21:05;97943.91;;;10.63;78.26
38912;BME280;28444;48.056;14.408;2023-02-19T11:23:42;97941.53;;;10.75;77.44
38912;BME280;28444;48.056;14.408;2023-02-19T11:26:18;97932.41;;;10.72;77.93
38912;BME280;28444;48.056;14.408;2023-02-19T11:28:54;97930.19;;;10.78;75.82
38912;BME280;28444;48.056;14.408;2023-02-19T11:31:27;97934.19;;;10.77;73.59
38912;BME280;28444;48.056;14.408;2023-02-19T11:33:56;97942.97;;;10.76;73.60
38912;BME280;28444;48.056;14.408;2023-02-19T11:36:26;97939.88;;;10.72;75.43
38912;BME280;28444;48.056;14.408;2023-02-19T11:38:56;97933.94;;;10.58;75.30
38912;BME280;28444;48.056;14.408;2023-02-19T11:53:59;97922.69;;;10.31;72.18
38912;BME280;28444;48.056;14.408;2023-02-19T11:56:35;97917.63;;;10.27;70.64
38912;BME280;28444;48.056;14.408;2023-02-19T11:59:04;97924.00;;;10.30;71.75
38912;BME280;28444;48.056;14.408;2023-02-19T12:01:48;97925.09;;;10.27;71.82
38912;BME280;28444;48.056;14.408;2023-02-19T12:11:03;97929.66;;;10.24;72.62
38912;BME280;28444;48.056;14.408;2023-02-19T12:16:47;97930.19;;;10.15;74.23
38912;BME280;28444;48.056;14.408;2023-02-19T12:22:36;97912.53;;;10.31;74.15
38912;BME280;28444;48.056;14.408;2023-02-19T12:25:39;97902.41;;;10.57;73.92
38912;BME280;28444;48.056;14.408;2023-02-19T12:32:20;97899.00;;;10.74;72.26
38912;BME280;28444;48.056;14.408;2023-02-19T12:38:29;97935.38;;;10.59;72.00
38912;BME280;28444;48.056;14.408;2023-02-19T12:41:36;97943.22;;;10.55;73.25
38912;BME280;28444;48.056;14.408;2023-02-19T12:44:18;97936.72;;;10.43;74.78
38912;BME280;28444;48.056;14.408;2023-02-19T12:46:50;97944.22;;;10.27;76.60
38912;BME280;28444;48.056;14.408;2023-02-19T12:49:35;97960.59;;;10.34;74.68
38912;BME280;28444;48.056;14.408;2023-02-19T12:52:35;97945.16;;;10.14;73.98
38912;BME280;28444;48.056;14.408;2023-02-19T12:55:23;97935.13;;;10.01;72.65
38912;BME280;28444;48.056;14.408;2023-02-19T12:57:50;97958.63;;;10.12;74.60
38912;BME280;28444;48.056;14.408;2023-02-19T13:03:26;97955.56;;;9.77;74.51
38912;BME280;28444;48.056;14.408;2023-02-19T13:06:09;97960.31;;;9.92;74.50
38912;BME280;28444;48.056;14.408;2023-02-19T13:08:50;97961.00;;;10.08;75.13
38912;BME280;28444;48.056;14.408;2023-02-19T13:11:47;97963.69;;;10.23;74.66
38912;BME280;28444;48.056;14.408;2023-02-19T13:14:27;97960.81;;;10.29;73.54
38912;BME280;28444;48.056;14.408;2023-02-19T13:19:47;97956.59;;;10.43;73.54
38912;BME280;28444;48.056;14.408;2023-02-19T13:22:26;97953.97;;;10.60;70.84
38912;BME280;28444;48.056;14.408;2023-02-19T13:25:14;97953.38;;;10.70;69.75
38912;BME280;28444;48.056;14.408;2023-02-19T13:28:05;97961.28;;;10.58;69.79
38912;BME280;28444;48.056;14.408;2023-02-19T13:30:38;97961.09;;;10.56;69.39
38912;BME280;28444;48.056;14.408;2023-02-19T13:33:25;97964.44;;;10.39;70.91
38912;BME280;28444;48.056;14.408;2023-02-19T13:36:35;97962.56;;;10.49;69.46
38912;BME280;28444;48.056;14.408;2023-02-19T13:39:05;97964.22;;;10.45;69.95
38912;BME280;28444;48.056;14.408;2023-02-19T13:41:40;97961.34;;;10.35;70.45
38912;BME280;28444;48.056;14.408;2023-02-19T13:44:18;97973.03;;;10.28;71.65
38912;BME280;28444;48.056;14.408;2023-02-19T13:46:47;97973.38;;;10.24;72.04
38912;BME280;28444;48.056;14.408;2023-02-19T13:49:36;97969.72;;;10.29;73.10
38912;BME280;28444;48.056;14.408;2023-02-19T13:55:47;97962.81;;;10.28;73.83
38912;BME280;28444;48.056;14.408;2023-02-19T13:58:36;97971.91;;;10.23;73.55
38912;BME280;28444;48.056;14.408;2023-02-19T14:01:07;97967.16;;;10.16;72.29
38912;BME280;28444;48.056;14.408;2023-02-19T14:07:21;97963.72;;;10.08;72.42
38912;BME280;28444;48.056;14.408;2023-02-19T14:09:48;97978.34;;;9.95;73.07
38912;BME280;28444;48.056;14.408;2023-02-19T14:12:20;97987.78;;;9.94;72.61
38912;BME280;28444;48.056;14.408;2023-02-19T14:14:51;97978.34;;;9.95;71.28
38912;BME280;28444;48.056;14.408;2023-02-19T14:17:38;97977.75;;;10.04;71.28
38912;BME280;28444;48.056;14.408;2023-02-19T14:23:00;97980.13;;;10.08;70.27
38912;BME280;28444;48.056;14.408;2023-02-19T14:25:35;97968.28;;;10.05;70.65